createdAt,value
2019-01-31T00:00:07.945Z,-8.44
2019-01-31T00:01:07.942Z,-8.42
2019-01-31T00:02:07.944Z,-8.45
2019-01-31T00:03:07.942Z,-8.42
2019-01-31T00:04:07.942Z,-8.42
2019-01-31T00:05:07.941Z,-8.39
2019-01-31T00:06:07.942Z,-8.40
2019-01-31T00:07:07.947Z,-8.40
2019-01-31T00:08:07.941Z,-8.30
2019-01-31T00:09:07.940Z,-8.29
2019-01-31T00:10:07.954Z,-8.24
2019-01-31T00:11:07.939Z,-8.26
2019-01-31T00:12:07.940Z,-8.26
2019-01-31T00:13:07.938Z,-8.16
2019-01-31T00:14:07.938Z,-8.16
2019-01-31T00:15:07.947Z,-8.08
2019-01-31T00:16:07.941Z,-8.05
2019-01-31T00:17:07.937Z,-8.09
2019-01-31T00:18:07.938Z,-8.08
2019-01-31T00:19:07.939Z,-7.97
2019-01-31T00:20:07.939Z,-8.08
2019-01-31T00:21:07.943Z,-8.06
2019-01-31T00:22:07.936Z,-7.99
2019-01-31T00:23:07.939Z,-7.99
2019-01-31T00:24:07.939Z,-7.99
2019-01-31T00:25:07.936Z,-7.96
2019-01-31T00:26:07.937Z,-8.02
2019-01-31T00:27:07.935Z,-7.97
2019-01-31T00:28:07.934Z,-7.96
2019-01-31T00:29:07.935Z,-8.06
2019-01-31T00:30:07.934Z,-8.11
2019-01-31T00:31:07.937Z,-8.08
2019-01-31T00:32:07.936Z,-8.11
2019-01-31T00:33:07.933Z,-8.16
2019-01-31T00:34:07.934Z,-8.19
2019-01-31T00:35:07.936Z,-8.19
2019-01-31T00:36:07.933Z,-8.16
2019-01-31T00:37:07.932Z,-8.18
2019-01-31T00:38:07.935Z,-8.21
2019-01-31T00:39:07.933Z,-8.26
2019-01-31T00:40:07.935Z,-8.29
2019-01-31T00:41:07.932Z,-8.23
2019-01-31T00:42:07.935Z,-8.24
2019-01-31T00:43:07.934Z,-8.27
2019-01-31T00:44:07.932Z,-8.33
2019-01-31T00:45:07.931Z,-8.27
2019-01-31T00:46:07.931Z,-8.21
2019-01-31T00:47:07.931Z,-8.21
2019-01-31T00:48:07.932Z,-8.15
2019-01-31T00:49:07.932Z,-8.12
2019-01-31T00:50:07.934Z,-8.19
2019-01-31T00:51:07.973Z,-8.02
2019-01-31T00:52:07.930Z,-8.01
2019-01-31T00:53:07.942Z,-8.05
2019-01-31T00:54:07.929Z,-8.01
2019-01-31T00:55:07.930Z,-7.99
2019-01-31T00:56:07.927Z,-7.91
2019-01-31T00:57:07.932Z,-7.97
2019-01-31T00:58:07.928Z,-7.99
2019-01-31T00:59:07.929Z,-7.97
2019-01-31T01:00:07.930Z,-7.93
2019-01-31T01:01:07.928Z,-7.93
2019-01-31T01:02:07.933Z,-8.02
2019-01-31T01:03:07.936Z,-8.01
2019-01-31T01:04:07.966Z,-7.99
2019-01-31T01:05:07.934Z,-8.02
2019-01-31T01:06:07.929Z,-8.16
2019-01-31T01:07:07.928Z,-8.12
2019-01-31T01:08:07.928Z,-8.12
2019-01-31T01:09:08.243Z,-8.11
2019-01-31T01:10:07.926Z,-8.09
2019-01-31T01:11:07.927Z,-8.05
2019-01-31T01:12:07.927Z,-8.08
2019-01-31T01:13:07.966Z,-8.05
2019-01-31T01:14:07.925Z,-8.06
2019-01-31T01:15:07.926Z,-8.11
2019-01-31T01:16:07.928Z,-8.18
2019-01-31T01:17:07.924Z,-8.13
2019-01-31T01:18:07.933Z,-8.21
2019-01-31T01:19:07.924Z,-8.16
2019-01-31T01:20:07.927Z,-8.13
2019-01-31T01:21:07.926Z,-8.23
2019-01-31T01:22:07.925Z,-8.29
2019-01-31T01:23:07.925Z,-8.27
2019-01-31T01:24:07.927Z,-8.29
2019-01-31T01:25:07.923Z,-8.30
2019-01-31T01:26:07.925Z,-8.44
2019-01-31T01:27:07.923Z,-8.40
2019-01-31T01:28:07.924Z,-8.36
2019-01-31T01:29:07.924Z,-8.34
2019-01-31T01:30:07.927Z,-8.42
2019-01-31T01:31:07.925Z,-8.50
2019-01-31T01:32:07.922Z,-8.48
2019-01-31T01:33:07.922Z,-8.66
2019-01-31T01:34:07.923Z,-8.63
2019-01-31T01:35:07.922Z,-8.63
2019-01-31T01:36:07.922Z,-8.66
2019-01-31T01:37:07.921Z,-8.69
2019-01-31T01:38:07.919Z,-8.66
2019-01-31T01:39:18.674Z,-8.69
2019-01-31T01:40:07.917Z,-8.69
2019-01-31T01:41:07.918Z,-8.66
2019-01-31T01:42:07.917Z,-8.68
2019-01-31T01:43:07.916Z,-8.65
2019-01-31T01:44:07.916Z,-8.72
2019-01-31T01:45:07.918Z,-8.57
2019-01-31T01:46:07.918Z,-8.63
2019-01-31T01:47:07.916Z,-8.58
2019-01-31T01:48:07.917Z,-8.60
2019-01-31T01:49:07.915Z,-8.58
2019-01-31T01:50:07.924Z,-8.48
2019-01-31T01:51:07.918Z,-8.52
2019-01-31T01:52:07.915Z,-8.47
2019-01-31T01:53:07.916Z,-8.45
2019-01-31T01:54:07.915Z,-8.63
2019-01-31T01:55:07.913Z,-8.62
2019-01-31T01:56:07.913Z,-8.63
2019-01-31T01:57:07.912Z,-8.57
2019-01-31T01:58:07.911Z,-8.73
2019-01-31T01:59:07.910Z,-8.60
2019-01-31T02:00:07.912Z,-8.57
2019-01-31T02:01:07.912Z,-8.57
2019-01-31T02:02:07.913Z,-8.60
2019-01-31T02:03:07.913Z,-8.54
2019-01-31T02:04:07.912Z,-8.54
2019-01-31T02:05:07.911Z,-8.48
2019-01-31T02:06:07.907Z,-8.48
2019-01-31T02:07:07.907Z,-8.45
2019-01-31T02:08:07.908Z,-8.44
2019-01-31T02:09:07.907Z,-8.37
2019-01-31T02:10:07.908Z,-8.44
2019-01-31T02:11:07.908Z,-8.39
2019-01-31T02:12:07.910Z,-8.50
2019-01-31T02:13:07.906Z,-8.44
2019-01-31T02:14:07.902Z,-8.44
2019-01-31T02:15:07.961Z,-8.48
2019-01-31T02:16:07.903Z,-8.33
2019-01-31T02:17:07.903Z,-8.39
2019-01-31T02:18:07.902Z,-8.33
2019-01-31T02:19:07.900Z,-8.44
2019-01-31T02:20:07.902Z,-8.40
2019-01-31T02:21:07.898Z,-8.40
2019-01-31T02:22:07.898Z,-8.40
2019-01-31T02:23:07.899Z,-8.39
2019-01-31T02:24:07.897Z,-8.36
2019-01-31T02:25:07.898Z,-8.36
2019-01-31T02:26:07.899Z,-8.39
2019-01-31T02:27:07.896Z,-8.36
2019-01-31T02:28:07.896Z,-8.39
2019-01-31T02:29:07.894Z,-8.37
2019-01-31T02:30:07.897Z,-8.37
2019-01-31T02:31:07.894Z,-8.39
2019-01-31T02:32:07.895Z,-8.31
2019-01-31T02:33:07.897Z,-8.36
2019-01-31T02:34:07.893Z,-8.44
2019-01-31T02:35:07.892Z,-8.40
2019-01-31T02:36:07.890Z,-8.40
2019-01-31T02:37:07.891Z,-8.36
2019-01-31T02:38:07.896Z,-8.34
2019-01-31T02:39:07.894Z,-8.34
2019-01-31T02:40:07.891Z,-8.42
2019-01-31T02:41:07.899Z,-8.40
2019-01-31T02:42:07.890Z,-8.50
2019-01-31T02:43:07.894Z,-8.45
2019-01-31T02:44:07.891Z,-8.48
2019-01-31T02:45:07.887Z,-8.47
2019-01-31T02:46:07.886Z,-8.37
2019-01-31T02:47:07.889Z,-8.39
2019-01-31T02:48:07.886Z,-8.44
2019-01-31T02:49:07.893Z,-8.42
2019-01-31T02:50:07.886Z,-8.47
2019-01-31T02:51:07.885Z,-8.39
2019-01-31T02:52:07.884Z,-8.47
2019-01-31T02:53:07.884Z,-8.52
2019-01-31T02:54:07.886Z,-8.44
2019-01-31T02:55:07.885Z,-8.48
2019-01-31T02:56:07.882Z,-8.52
2019-01-31T02:57:07.883Z,-8.45
2019-01-31T02:58:07.883Z,-8.60
2019-01-31T02:59:07.886Z,-8.57
2019-01-31T03:00:07.880Z,-8.65
2019-01-31T03:01:07.881Z,-8.73
2019-01-31T03:02:07.879Z,-8.75
2019-01-31T03:03:07.878Z,-8.80
2019-01-31T03:04:07.879Z,-8.90
2019-01-31T03:05:07.877Z,-8.90
2019-01-31T03:06:07.878Z,-8.90
2019-01-31T03:07:07.878Z,-8.83
2019-01-31T03:08:07.880Z,-8.78
2019-01-31T03:09:07.880Z,-8.83
2019-01-31T03:10:07.875Z,-8.78
2019-01-31T03:11:07.878Z,-8.83
2019-01-31T03:12:07.874Z,-8.80
2019-01-31T03:13:07.880Z,-8.83
2019-01-31T03:14:10.214Z,-9.07
2019-01-31T03:15:07.872Z,-9.07
2019-01-31T03:16:07.876Z,-9.12
2019-01-31T03:17:07.870Z,-9.04
2019-01-31T03:18:07.875Z,-9.05
2019-01-31T03:19:07.874Z,-9.10
2019-01-31T03:20:07.870Z,-8.93
2019-01-31T03:21:07.883Z,-8.93
2019-01-31T03:22:07.869Z,-8.86
2019-01-31T03:23:07.866Z,-8.93
2019-01-31T03:24:07.866Z,-9.02
2019-01-31T03:25:07.870Z,-9.05
2019-01-31T03:26:07.866Z,-9.04
2019-01-31T03:27:07.867Z,-9.11
2019-01-31T03:28:07.865Z,-9.02
2019-01-31T03:29:07.864Z,-9.02
2019-01-31T03:30:07.864Z,-9.22
2019-01-31T03:31:07.863Z,-9.33
2019-01-31T03:32:07.863Z,-9.41
2019-01-31T03:33:07.935Z,-9.44
2019-01-31T03:34:07.859Z,-9.41
2019-01-31T03:35:07.859Z,-9.48
2019-01-31T03:36:07.857Z,-9.33
2019-01-31T03:37:07.857Z,-9.30
2019-01-31T03:38:07.857Z,-9.23
2019-01-31T03:39:07.856Z,-9.32
2019-01-31T03:40:07.866Z,-9.29
2019-01-31T03:41:07.853Z,-9.29
2019-01-31T03:42:07.867Z,-9.32
2019-01-31T03:43:07.855Z,-9.45
2019-01-31T03:44:07.849Z,-9.51
2019-01-31T03:45:07.852Z,-9.44
2019-01-31T03:46:07.852Z,-9.51
2019-01-31T03:47:07.849Z,-9.56
2019-01-31T03:48:07.847Z,-9.51
2019-01-31T03:49:07.846Z,-9.63
2019-01-31T03:50:07.846Z,-9.65
2019-01-31T03:51:07.843Z,-9.65
2019-01-31T03:52:07.842Z,-9.77
2019-01-31T03:53:07.841Z,-9.62
2019-01-31T03:54:07.840Z,-9.61
2019-01-31T03:55:07.840Z,-9.59
2019-01-31T03:56:07.845Z,-9.51
2019-01-31T03:57:07.836Z,-9.48
2019-01-31T03:58:07.841Z,-9.51
2019-01-31T03:59:07.835Z,-9.48
2019-01-31T04:00:07.849Z,-9.50
2019-01-31T04:01:07.830Z,-9.48
2019-01-31T04:02:07.831Z,-9.32
2019-01-31T04:03:07.828Z,-9.33
2019-01-31T04:04:07.825Z,-9.28
2019-01-31T04:05:07.827Z,-9.28
2019-01-31T04:06:07.829Z,-9.25
2019-01-31T04:07:07.824Z,-9.19
2019-01-31T04:08:07.820Z,-9.14
2019-01-31T04:09:07.898Z,-9.12
2019-01-31T04:10:18.385Z,-9.07
2019-01-31T04:11:07.819Z,-9.08
2019-01-31T04:12:07.818Z,-9.07
2019-01-31T04:13:07.818Z,-9.04
2019-01-31T04:14:07.815Z,-8.98
2019-01-31T04:15:07.813Z,-8.89
2019-01-31T04:16:07.812Z,-8.91
2019-01-31T04:17:07.814Z,-8.86
2019-01-31T04:18:07.814Z,-8.86
2019-01-31T04:19:07.809Z,-8.90
2019-01-31T04:20:07.844Z,-8.84
2019-01-31T04:21:07.974Z,-8.87
2019-01-31T04:22:07.813Z,-8.91
2019-01-31T04:23:07.807Z,-8.83
2019-01-31T04:24:07.804Z,-8.78
2019-01-31T04:25:07.812Z,-8.75
2019-01-31T04:26:07.805Z,-8.72
2019-01-31T04:27:07.800Z,-8.81
2019-01-31T04:28:07.807Z,-8.75
2019-01-31T04:29:07.798Z,-8.75
2019-01-31T04:30:07.800Z,-8.70
2019-01-31T04:31:07.809Z,-8.80
2019-01-31T04:32:07.798Z,-8.66
2019-01-31T04:33:07.793Z,-8.70
2019-01-31T04:34:07.800Z,-8.72
2019-01-31T04:35:07.800Z,-8.75
2019-01-31T04:36:07.807Z,-8.75
2019-01-31T04:37:07.791Z,-8.70
2019-01-31T04:38:07.791Z,-8.72
2019-01-31T04:39:07.792Z,-8.76
2019-01-31T04:40:07.789Z,-8.68
2019-01-31T04:41:07.785Z,-8.78
2019-01-31T04:42:07.785Z,-8.86
2019-01-31T04:43:07.786Z,-8.94
2019-01-31T04:44:07.790Z,-9.00
2019-01-31T04:45:07.787Z,-9.07
2019-01-31T04:46:07.784Z,-9.05
2019-01-31T04:47:07.784Z,-9.02
2019-01-31T04:48:07.781Z,-9.02
2019-01-31T04:49:07.781Z,-9.07
2019-01-31T04:50:07.777Z,-9.05
2019-01-31T04:51:07.777Z,-9.10
2019-01-31T04:52:07.775Z,-9.10
2019-01-31T04:53:07.774Z,-9.10
2019-01-31T04:54:07.779Z,-9.04
2019-01-31T04:55:07.775Z,-8.90
2019-01-31T04:56:07.770Z,-8.81
2019-01-31T04:57:07.773Z,-8.87
2019-01-31T04:58:07.775Z,-9.00
2019-01-31T04:59:07.769Z,-9.12
2019-01-31T05:00:07.767Z,-9.18
2019-01-31T05:01:07.768Z,-9.23
2019-01-31T05:02:07.800Z,-9.36
2019-01-31T05:03:07.773Z,-9.40
2019-01-31T05:04:07.772Z,-9.37
2019-01-31T05:05:07.764Z,-9.30
2019-01-31T05:06:07.777Z,-9.32
2019-01-31T05:07:07.763Z,-9.30
2019-01-31T05:08:07.761Z,-9.25
2019-01-31T05:09:07.763Z,-9.20
2019-01-31T05:10:07.759Z,-9.15
2019-01-31T05:11:07.759Z,-9.19
2019-01-31T05:12:07.758Z,-9.19
2019-01-31T05:13:07.759Z,-9.18
2019-01-31T05:14:07.756Z,-9.07
2019-01-31T05:15:07.755Z,-9.02
2019-01-31T05:16:07.754Z,-9.10
2019-01-31T05:17:07.752Z,-9.02
2019-01-31T05:18:07.757Z,-8.98
2019-01-31T05:19:07.751Z,-8.98
2019-01-31T05:20:07.772Z,-9.08
2019-01-31T05:21:07.753Z,-9.14
2019-01-31T05:22:07.752Z,-9.07
2019-01-31T05:23:07.747Z,-9.07
2019-01-31T05:24:07.746Z,-9.04
2019-01-31T05:25:07.750Z,-9.07
2019-01-31T05:26:07.749Z,-9.05
2019-01-31T05:27:07.745Z,-9.04
2019-01-31T05:28:07.747Z,-8.98
2019-01-31T05:29:07.744Z,-8.96
2019-01-31T05:30:07.750Z,-8.96
2019-01-31T05:31:07.744Z,-9.07
2019-01-31T05:32:07.740Z,-8.98
2019-01-31T05:33:07.741Z,-8.87
2019-01-31T05:34:07.740Z,-8.86
2019-01-31T05:35:07.738Z,-8.80
2019-01-31T05:36:07.742Z,-9.02
2019-01-31T05:37:07.738Z,-9.20
2019-01-31T05:38:07.740Z,-9.20
2019-01-31T05:39:07.734Z,-9.20
2019-01-31T05:40:07.748Z,-9.22
2019-01-31T05:41:07.734Z,-9.18
2019-01-31T05:42:07.732Z,-9.19
2019-01-31T05:43:07.734Z,-9.22
2019-01-31T05:44:07.730Z,-9.08
2019-01-31T05:45:07.728Z,-9.02
2019-01-31T05:46:07.727Z,-9.00
2019-01-31T05:47:07.728Z,-9.01
2019-01-31T05:48:07.727Z,-9.02
2019-01-31T05:49:07.724Z,-8.89
2019-01-31T05:50:07.723Z,-8.83
2019-01-31T05:51:07.722Z,-8.81
2019-01-31T05:52:07.720Z,-8.81
2019-01-31T05:53:07.731Z,-8.84
2019-01-31T05:54:07.725Z,-8.76
2019-01-31T05:55:07.725Z,-8.93
2019-01-31T05:56:07.719Z,-8.91
2019-01-31T05:57:07.724Z,-8.90
2019-01-31T05:58:07.715Z,-8.86
2019-01-31T05:59:07.715Z,-8.94
2019-01-31T06:00:07.715Z,-9.07
2019-01-31T06:01:07.716Z,-9.00
2019-01-31T06:02:07.715Z,-8.89
2019-01-31T06:03:07.718Z,-8.91
2019-01-31T06:04:07.709Z,-8.87
2019-01-31T06:05:07.708Z,-8.90
2019-01-31T06:06:07.718Z,-8.80
2019-01-31T06:07:11.214Z,-8.84
2019-01-31T06:08:07.710Z,-8.73
2019-01-31T06:09:07.706Z,-8.72
2019-01-31T06:10:07.714Z,-8.80
2019-01-31T06:11:08.103Z,-8.69
2019-01-31T06:12:07.705Z,-8.72
2019-01-31T06:13:07.705Z,-8.66
2019-01-31T06:14:07.703Z,-8.69
2019-01-31T06:15:07.701Z,-8.50
2019-01-31T06:16:07.699Z,-8.58
2019-01-31T06:17:07.700Z,-8.58
2019-01-31T06:18:07.708Z,-8.45
2019-01-31T06:19:07.709Z,-8.47
2019-01-31T06:20:07.698Z,-8.40
2019-01-31T06:21:07.698Z,-8.45
2019-01-31T06:22:07.701Z,-8.39
2019-01-31T06:23:07.694Z,-8.47
2019-01-31T06:24:07.694Z,-8.50
2019-01-31T06:25:07.695Z,-8.70
2019-01-31T06:26:07.700Z,-8.80
2019-01-31T06:27:07.694Z,-8.89
2019-01-31T06:28:07.697Z,-9.07
2019-01-31T06:29:07.690Z,-9.02
2019-01-31T06:30:07.690Z,-9.04
2019-01-31T06:31:07.689Z,-8.91
2019-01-31T06:32:07.698Z,-8.91
2019-01-31T06:33:07.694Z,-8.90
2019-01-31T06:34:07.686Z,-8.89
2019-01-31T06:35:07.686Z,-8.81
2019-01-31T06:36:07.684Z,-8.83
2019-01-31T06:37:07.684Z,-8.83
2019-01-31T06:38:07.685Z,-8.98
2019-01-31T06:39:07.685Z,-8.98
2019-01-31T06:40:07.681Z,-8.93
2019-01-31T06:41:18.039Z,-8.81
2019-01-31T06:42:07.684Z,-8.86
2019-01-31T06:43:07.679Z,-8.93
2019-01-31T06:44:07.678Z,-8.83
2019-01-31T06:45:07.677Z,-8.76
2019-01-31T06:46:07.679Z,-8.70
2019-01-31T06:47:07.681Z,-8.72
2019-01-31T06:48:07.678Z,-8.66
2019-01-31T06:49:07.676Z,-8.75
2019-01-31T06:50:07.676Z,-8.60
2019-01-31T06:51:07.679Z,-8.63
2019-01-31T06:52:07.675Z,-8.63
2019-01-31T06:53:07.674Z,-8.50
2019-01-31T06:54:07.888Z,-8.52
2019-01-31T06:55:07.682Z,-8.40
2019-01-31T06:56:07.670Z,-8.55
2019-01-31T06:57:07.675Z,-8.48
2019-01-31T06:58:07.718Z,-8.58
2019-01-31T06:59:07.671Z,-8.66
2019-01-31T07:00:07.667Z,-8.51
2019-01-31T07:01:07.669Z,-8.58
2019-01-31T07:02:07.665Z,-8.48
2019-01-31T07:03:07.664Z,-8.54
2019-01-31T07:04:07.667Z,-8.48
2019-01-31T07:05:07.663Z,-8.47
2019-01-31T07:06:07.662Z,-8.45
2019-01-31T07:07:07.770Z,-8.54
2019-01-31T07:08:07.665Z,-8.42
2019-01-31T07:09:07.661Z,-8.42
2019-01-31T07:10:07.663Z,-8.37
2019-01-31T07:11:07.661Z,-8.37
2019-01-31T07:12:07.658Z,-8.39
2019-01-31T07:13:07.664Z,-8.37
2019-01-31T07:14:07.659Z,-8.34
2019-01-31T07:15:07.661Z,-8.42
2019-01-31T07:16:07.656Z,-8.40
2019-01-31T07:17:07.655Z,-8.37
2019-01-31T07:18:07.657Z,-8.34
2019-01-31T07:19:07.653Z,-8.36
2019-01-31T07:20:07.663Z,-8.29
2019-01-31T07:21:07.652Z,-8.29
2019-01-31T07:22:07.652Z,-8.27
2019-01-31T07:23:07.654Z,-8.12
2019-01-31T07:24:07.734Z,-8.16
2019-01-31T07:25:07.651Z,-8.13
2019-01-31T07:26:07.653Z,-8.11
2019-01-31T07:27:07.653Z,-8.11
2019-01-31T07:28:07.651Z,-8.02
2019-01-31T07:29:07.648Z,-8.02
2019-01-31T07:30:07.650Z,-8.06
2019-01-31T07:31:07.651Z,-8.08
2019-01-31T07:32:07.646Z,-8.13
2019-01-31T07:33:07.646Z,-8.05
2019-01-31T07:34:07.646Z,-8.05
2019-01-31T07:35:07.650Z,-8.01
2019-01-31T07:36:07.651Z,-7.99
2019-01-31T07:37:07.647Z,-8.02
2019-01-31T07:38:07.647Z,-7.99
2019-01-31T07:39:07.645Z,-8.05
2019-01-31T07:40:07.646Z,-8.08
2019-01-31T07:41:07.643Z,-8.01
2019-01-31T07:42:07.650Z,-8.02
2019-01-31T07:43:07.647Z,-8.08
2019-01-31T07:44:07.644Z,-8.09
2019-01-31T07:45:07.652Z,-8.16
2019-01-31T07:46:07.644Z,-8.13
2019-01-31T07:47:07.647Z,-8.26
2019-01-31T07:48:07.641Z,-8.26
2019-01-31T07:49:07.641Z,-8.27
2019-01-31T07:50:07.641Z,-8.12
2019-01-31T07:51:07.643Z,-8.15
2019-01-31T07:52:07.639Z,-8.18
2019-01-31T07:53:07.639Z,-8.16
2019-01-31T07:54:07.640Z,-8.11
2019-01-31T07:55:07.639Z,-8.08
2019-01-31T07:56:07.641Z,-8.06
2019-01-31T07:57:07.639Z,-8.02
2019-01-31T07:58:07.644Z,-8.06
2019-01-31T07:59:07.641Z,-7.96
2019-01-31T08:00:07.638Z,-7.89
2019-01-31T08:01:07.636Z,-7.83
2019-01-31T08:02:07.636Z,-7.72
2019-01-31T08:03:07.637Z,-7.72
2019-01-31T08:04:07.638Z,-7.83
2019-01-31T08:05:07.637Z,-7.66
2019-01-31T08:06:07.638Z,-7.58
2019-01-31T08:07:07.637Z,-7.78
2019-01-31T08:08:07.635Z,-7.94
2019-01-31T08:09:07.632Z,-8.24
2019-01-31T08:10:07.633Z,-8.08
2019-01-31T08:11:07.633Z,-7.93
2019-01-31T08:12:07.631Z,-7.96
2019-01-31T08:13:07.635Z,-7.78
2019-01-31T08:14:07.635Z,-7.69
2019-01-31T08:15:07.834Z,-7.61
2019-01-31T08:16:07.632Z,-7.57
2019-01-31T08:17:07.634Z,-7.71
2019-01-31T08:18:07.633Z,-7.75
2019-01-31T08:19:07.634Z,-7.66
2019-01-31T08:20:07.629Z,-7.51
2019-01-31T08:21:07.629Z,-7.41
2019-01-31T08:22:07.632Z,-7.25
2019-01-31T08:23:07.632Z,-7.13
2019-01-31T08:24:09.558Z,-6.95
2019-01-31T08:25:07.632Z,-6.86
2019-01-31T08:26:07.634Z,-6.74
2019-01-31T08:27:07.631Z,-6.61
2019-01-31T08:28:07.636Z,-6.42
2019-01-31T08:29:07.630Z,-6.34
2019-01-31T08:30:07.631Z,-6.39
2019-01-31T08:31:07.631Z,-6.26
2019-01-31T08:32:07.632Z,-6.10
2019-01-31T08:33:07.635Z,-6.04
2019-01-31T08:34:07.634Z,-6.04
2019-01-31T08:35:07.632Z,-5.94
2019-01-31T08:36:07.633Z,-5.93
2019-01-31T08:37:07.632Z,-5.82
2019-01-31T08:38:07.635Z,-5.69
2019-01-31T08:39:07.635Z,-5.59
2019-01-31T08:40:07.642Z,-5.43
2019-01-31T08:41:07.636Z,-5.18
2019-01-31T08:42:07.636Z,-5.25
2019-01-31T08:43:07.638Z,-5.32
2019-01-31T08:44:07.641Z,-5.43
2019-01-31T08:45:07.639Z,-5.39
2019-01-31T08:46:07.641Z,-5.33
2019-01-31T08:47:07.645Z,-5.00
2019-01-31T08:48:07.645Z,-4.79
2019-01-31T08:49:07.646Z,-4.77
2019-01-31T08:50:07.650Z,-4.61
2019-01-31T08:51:07.649Z,-4.72
2019-01-31T08:52:07.652Z,-4.77
2019-01-31T08:53:07.670Z,-4.87
2019-01-31T08:54:07.658Z,-5.17
2019-01-31T08:55:07.657Z,-5.11
2019-01-31T08:56:07.657Z,-5.07
2019-01-31T08:57:07.665Z,-5.07
2019-01-31T08:58:07.661Z,-5.06
2019-01-31T08:59:07.663Z,-5.07
2019-01-31T09:00:07.665Z,-4.78
2019-01-31T09:01:07.668Z,-4.51
2019-01-31T09:02:07.672Z,-4.28
2019-01-31T09:03:07.678Z,-4.29
2019-01-31T09:04:07.673Z,-4.63
2019-01-31T09:05:07.676Z,-5.26
2019-01-31T09:06:07.680Z,-5.19
2019-01-31T09:07:07.685Z,-5.43
2019-01-31T09:08:07.683Z,-5.44
2019-01-31T09:09:07.694Z,-5.11
2019-01-31T09:10:07.690Z,-4.97
2019-01-31T09:11:07.692Z,-4.77
2019-01-31T09:12:15.006Z,-4.57
2019-01-31T09:13:07.691Z,-4.21
2019-01-31T09:14:07.698Z,-4.24
2019-01-31T09:15:07.699Z,-4.04
2019-01-31T09:16:07.700Z,-4.12
2019-01-31T09:17:07.703Z,-4.63
2019-01-31T09:18:07.706Z,-4.83
2019-01-31T09:19:07.709Z,-5.07
2019-01-31T09:20:07.713Z,-5.13
2019-01-31T09:21:07.715Z,-5.14
2019-01-31T09:22:07.717Z,-5.43
2019-01-31T09:23:07.718Z,-5.07
2019-01-31T09:24:07.723Z,-4.87
2019-01-31T09:25:07.724Z,-4.57
2019-01-31T09:26:07.726Z,-4.56
2019-01-31T09:27:07.732Z,-4.60
2019-01-31T09:28:07.739Z,-4.60
2019-01-31T09:29:07.735Z,-5.08
2019-01-31T09:30:07.738Z,-5.13
2019-01-31T09:31:07.742Z,-5.44
2019-01-31T09:32:07.745Z,-5.39
2019-01-31T09:33:07.744Z,-5.46
2019-01-31T09:34:07.748Z,-5.13
2019-01-31T09:35:07.752Z,-4.87
2019-01-31T09:36:07.753Z,-4.71
2019-01-31T09:37:07.756Z,-5.03
2019-01-31T09:38:07.761Z,-4.86
2019-01-31T09:39:07.761Z,-4.86
2019-01-31T09:40:07.765Z,-4.90
2019-01-31T09:41:08.505Z,-4.81
2019-01-31T09:42:07.769Z,-4.71
2019-01-31T09:43:07.772Z,-4.60
2019-01-31T09:44:07.778Z,-4.36
2019-01-31T09:45:07.779Z,-4.12
2019-01-31T09:46:07.786Z,-4.11
2019-01-31T09:47:07.783Z,-4.24
2019-01-31T09:48:07.785Z,-4.46
2019-01-31T09:49:07.789Z,-4.14
2019-01-31T09:50:07.794Z,-4.25
2019-01-31T09:51:07.800Z,-4.32
2019-01-31T09:52:07.800Z,-4.40
2019-01-31T09:53:07.799Z,-4.42
2019-01-31T09:54:07.807Z,-4.30
2019-01-31T09:55:07.808Z,-4.04
2019-01-31T09:56:07.812Z,-4.22
2019-01-31T09:57:07.812Z,-4.28
2019-01-31T09:58:07.816Z,-4.40
2019-01-31T09:59:07.818Z,-4.04
2019-01-31T10:00:07.821Z,-4.06
2019-01-31T10:01:07.824Z,-4.00
2019-01-31T10:02:07.827Z,-3.54
2019-01-31T10:03:07.831Z,-3.75
2019-01-31T10:04:07.866Z,-3.78
2019-01-31T10:05:07.838Z,-3.59
2019-01-31T10:06:07.842Z,-4.17
2019-01-31T10:07:07.843Z,-4.29
2019-01-31T10:08:07.851Z,-4.00
2019-01-31T10:09:07.854Z,-4.18
2019-01-31T10:10:07.859Z,-4.06
2019-01-31T10:11:07.873Z,-3.88
2019-01-31T10:12:07.902Z,-3.83
2019-01-31T10:13:07.865Z,-3.36
2019-01-31T10:14:07.926Z,-3.02
2019-01-31T10:15:07.874Z,-2.82
2019-01-31T10:16:07.981Z,-2.64
2019-01-31T10:17:07.905Z,-2.85
2019-01-31T10:18:08.090Z,-3.39
2019-01-31T10:19:07.901Z,-3.69
2019-01-31T10:20:07.938Z,-3.28
2019-01-31T10:21:07.970Z,-3.20
2019-01-31T10:22:07.997Z,-2.81
2019-01-31T10:23:07.945Z,-2.45
2019-01-31T10:24:08.047Z,-2.61
2019-01-31T10:25:07.912Z,-2.45
2019-01-31T10:26:07.915Z,-2.68
2019-01-31T10:27:07.919Z,-2.63
2019-01-31T10:28:07.920Z,-3.21
2019-01-31T10:29:07.927Z,-3.36
2019-01-31T10:30:07.929Z,-3.14
2019-01-31T10:31:07.938Z,-2.79
2019-01-31T10:32:07.938Z,-2.77
2019-01-31T10:33:07.943Z,-3.10
2019-01-31T10:34:07.949Z,-3.72
2019-01-31T10:35:07.953Z,-3.15
2019-01-31T10:36:07.956Z,-2.96
2019-01-31T10:37:07.961Z,-3.17
2019-01-31T10:38:07.964Z,-3.43
2019-01-31T10:39:07.970Z,-3.18
2019-01-31T10:40:07.973Z,-2.85
2019-01-31T10:41:07.979Z,-2.77
2019-01-31T10:42:07.982Z,-2.45
2019-01-31T10:43:07.995Z,-2.40
2019-01-31T10:44:07.993Z,-2.15
2019-01-31T10:45:07.997Z,-1.62
2019-01-31T10:46:08.001Z,-1.80
2019-01-31T10:47:08.009Z,-1.72
2019-01-31T10:48:08.011Z,-1.20
2019-01-31T10:49:08.017Z,-0.46
2019-01-31T10:50:08.025Z,-0.47
2019-01-31T10:51:08.028Z,-1.19
2019-01-31T10:52:08.032Z,-1.54
2019-01-31T10:53:08.036Z,-1.59
2019-01-31T10:54:08.041Z,-1.23
2019-01-31T10:55:08.051Z,-1.22
2019-01-31T10:56:08.055Z,-0.75
2019-01-31T10:57:08.058Z,-1.54
2019-01-31T10:58:08.119Z,-1.40
2019-01-31T10:59:08.069Z,-1.61
2019-01-31T11:00:08.077Z,-1.80
2019-01-31T11:01:08.079Z,-1.87
2019-01-31T11:02:08.086Z,-2.39
2019-01-31T11:03:08.091Z,-2.23
2019-01-31T11:04:08.099Z,-2.32
2019-01-31T11:05:08.103Z,-2.20
2019-01-31T11:06:08.113Z,-1.77
2019-01-31T11:07:08.117Z,-1.84
2019-01-31T11:08:08.120Z,-2.23
2019-01-31T11:09:08.124Z,-1.98
2019-01-31T11:10:08.131Z,-1.56
2019-01-31T11:11:08.136Z,-1.20
2019-01-31T11:12:08.147Z,-0.92
2019-01-31T11:13:08.147Z,-1.19
2019-01-31T11:14:08.155Z,-1.66
2019-01-31T11:15:08.160Z,-1.82
2019-01-31T11:16:08.167Z,-2.50
2019-01-31T11:17:08.171Z,-2.34
2019-01-31T11:18:08.179Z,-2.23
2019-01-31T11:19:12.473Z,-2.05
2019-01-31T11:20:08.187Z,-2.32
2019-01-31T11:21:08.194Z,-2.20
2019-01-31T11:22:08.201Z,-1.80
2019-01-31T11:23:08.208Z,-0.92
2019-01-31T11:24:08.321Z,-0.64
2019-01-31T11:25:08.217Z,-0.86
2019-01-31T11:26:08.223Z,-0.86
2019-01-31T11:27:08.228Z,-0.49
2019-01-31T11:28:08.237Z,0.11
2019-01-31T11:29:08.243Z,0.15
2019-01-31T11:30:08.246Z,0.13
2019-01-31T11:31:08.252Z,0.32
2019-01-31T11:32:08.260Z,0.87
2019-01-31T11:33:08.271Z,-0.18
2019-01-31T11:34:08.270Z,0.17
2019-01-31T11:35:08.278Z,-0.40
2019-01-31T11:36:08.284Z,-1.19
2019-01-31T11:37:08.289Z,-1.38
2019-01-31T11:38:08.300Z,-1.61
2019-01-31T11:39:08.304Z,-1.30
2019-01-31T11:40:08.309Z,-1.54
2019-01-31T11:41:08.314Z,-1.95
2019-01-31T11:42:08.322Z,-1.38
2019-01-31T11:43:11.878Z,-0.82
2019-01-31T11:44:08.333Z,-1.02
2019-01-31T11:45:08.341Z,-0.47
2019-01-31T11:46:08.350Z,-0.29
2019-01-31T11:47:08.358Z,-0.03
2019-01-31T11:48:08.360Z,0.36
2019-01-31T11:49:08.370Z,0.66
2019-01-31T11:50:08.376Z,0.88
2019-01-31T11:51:08.379Z,-0.33
2019-01-31T11:52:08.387Z,-0.33
2019-01-31T11:53:08.392Z,-0.55
2019-01-31T11:54:08.401Z,-0.86
2019-01-31T11:55:08.409Z,-1.19
2019-01-31T11:56:08.412Z,-1.79
2019-01-31T11:57:08.422Z,-2.02
2019-01-31T11:58:08.425Z,-1.94
2019-01-31T11:59:08.436Z,-1.54
2019-01-31T12:00:08.439Z,-1.02
2019-01-31T12:01:08.449Z,-1.33
2019-01-31T12:02:08.455Z,-1.54
2019-01-31T12:03:08.459Z,-1.80
2019-01-31T12:04:08.467Z,-1.97
2019-01-31T12:05:08.473Z,-1.69
2019-01-31T12:06:08.478Z,-1.58
2019-01-31T12:07:08.487Z,-1.17
2019-01-31T12:08:08.491Z,-0.99
2019-01-31T12:09:08.497Z,-0.79
2019-01-31T12:10:08.507Z,-1.12
2019-01-31T12:11:08.512Z,-0.70
2019-01-31T12:12:08.520Z,-0.61
2019-01-31T12:13:08.531Z,-0.75
2019-01-31T12:14:08.535Z,-1.34
2019-01-31T12:15:08.538Z,-0.98
2019-01-31T12:16:08.544Z,-1.13
2019-01-31T12:17:08.551Z,-1.54
2019-01-31T12:18:08.557Z,-1.16
2019-01-31T12:19:08.569Z,-0.89
2019-01-31T12:20:08.571Z,-0.82
2019-01-31T12:21:08.577Z,-0.73
2019-01-31T12:22:08.630Z,-1.10
2019-01-31T12:23:08.592Z,-1.25
2019-01-31T12:24:16.077Z,-0.85
2019-01-31T12:25:08.604Z,-0.73
2019-01-31T12:26:08.611Z,-0.80
2019-01-31T12:27:08.619Z,-1.41
2019-01-31T12:28:08.622Z,-1.62
2019-01-31T12:29:08.629Z,-1.62
2019-01-31T12:30:08.639Z,-1.30
2019-01-31T12:31:08.643Z,-1.34
2019-01-31T12:32:08.650Z,-1.15
2019-01-31T12:33:08.657Z,-0.79
2019-01-31T12:34:08.663Z,-0.33
2019-01-31T12:35:08.676Z,-0.92
2019-01-31T12:36:08.676Z,-1.54
2019-01-31T12:37:08.688Z,-1.95
2019-01-31T12:38:08.692Z,-1.92
2019-01-31T12:39:08.696Z,-1.90
2019-01-31T12:40:08.810Z,-1.84
2019-01-31T12:41:08.715Z,-1.37
2019-01-31T12:42:08.715Z,-1.02
2019-01-31T12:43:08.723Z,-0.75
2019-01-31T12:44:08.731Z,-0.83
2019-01-31T12:45:08.734Z,-1.66
2019-01-31T12:46:08.744Z,-1.43
2019-01-31T12:47:08.749Z,-1.17
2019-01-31T12:48:08.757Z,-0.94
2019-01-31T12:49:08.762Z,-0.49
2019-01-31T12:50:08.768Z,-0.14
2019-01-31T12:51:08.776Z,0.15
2019-01-31T12:52:08.781Z,-0.22
2019-01-31T12:53:08.787Z,-0.28